Time;durP1;ratioP1;P1;durP2;ratioP2;P2;SDS_P1;SDS_P2;PMS_P1;PMS_P2;Temp;Humidity;BMP_temperature;BMP_pressure;BME280_temperature;BME280_humidity;BME280_pressure;Samples;Min_cycle;Max_cycle;Signal;HPM_P1;HPM_P2
2022/12/28 00:01:34;;;;;;;10.47;7.30;;;3.80;99.90;;;;;;5017694;28;20217;-85
2022/12/28 00:04:21;;;;;;;9.10;7.83;;;3.80;99.90;;;;;;5022298;28;20245;-87
2022/12/28 00:06:54;;;;;;;11.27;9.20;;;3.80;99.90;;;;;;5017782;28;20206;-86
2022/12/28 00:09:20;;;;;;;8.33;7.50;;;3.80;99.90;;;;;;5004268;28;20178;-88
2022/12/28 00:11:51;;;;;;;9.27;8.23;;;3.80;99.90;;;;;;5034613;28;20176;-87
2022/12/28 00:14:48;;;;;;;9.50;7.30;;;3.80;99.90;;;;;;5018235;28;20178;-87
2022/12/28 00:17:17;;;;;;;10.10;8.23;;;3.90;99.90;;;;;;5010475;28;20218;-87
2022/12/28 00:19:46;;;;;;;7.93;6.83;;;4.00;99.90;;;;;;5022445;28;20823;-87
2022/12/28 00:22:18;;;;;;;8.63;7.07;;;4.00;99.90;;;;;;5016755;28;20178;-87
2022/12/28 00:24:50;;;;;;;10.57;7.90;;;4.00;99.90;;;;;;5021773;28;20480;-87
2022/12/28 00:27:19;;;;;;;12.30;8.60;;;3.90;99.90;;;;;;5018910;28;20218;-86
2022/12/28 00:29:45;;;;;;;8.47;7.23;;;3.90;99.90;;;;;;5031577;28;20273;-87
2022/12/28 00:32:18;;;;;;;10.47;7.77;;;3.90;99.90;;;;;;5007565;28;20198;-88
2022/12/28 00:35:05;;;;;;;15.17;8.50;;;3.80;99.90;;;;;;5008297;28;20281;-86
2022/12/28 00:37:35;;;;;;;8.90;6.30;;;3.80;99.90;;;;;;5027656;28;20214;-86
2022/12/28 00:40:19;;;;;;;10.87;6.43;;;3.70;99.90;;;;;;5016007;28;20177;-86
2022/12/28 00:43:27;;;;;;;9.50;6.77;;;3.50;99.90;;;;;;5009525;28;20220;-88
2022/12/28 00:46:16;;;;;;;;;;;;;;;;;;;;;
2022/12/28 00:49:07;;;;;;;9.80;6.50;;;3.80;99.90;;;;;;5017056;28;20228;-88
2022/12/28 00:51:43;;;;;;;7.97;6.07;;;3.90;99.90;;;;;;5018743;28;20200;-87
2022/12/28 00:54:19;;;;;;;7.87;5.43;;;3.80;99.90;;;;;;5012344;28;20267;-87
2022/12/28 00:57:16;;;;;;;8.10;5.57;;;3.90;99.90;;;;;;5019184;28;20235;-88
2022/12/28 00:59:45;;;;;;;6.37;5.77;;;3.90;99.90;;;;;;5018630;28;20225;-87
2022/12/28 01:02:20;;;;;;;6.20;5.60;;;3.90;99.90;;;;;;5043571;28;20205;-87
2022/12/28 01:05:03;;;;;;;6.37;5.70;;;4.00;99.90;;;;;;5033206;28;20244;-87
2022/12/28 01:07:29;;;;;;;6.20;5.53;;;4.00;99.90;;;;;;5020435;28;20296;-87
2022/12/28 01:10:00;;;;;;;6.73;5.63;;;4.00;99.90;;;;;;5011869;28;20182;-88
2022/12/28 01:12:29;;;;;;;5.53;4.63;;;4.00;99.90;;;;;;5011424;28;20186;-89
2022/12/28 01:14:56;;;;;;;7.03;5.50;;;3.90;99.90;;;;;;5026045;28;20271;-87
2022/12/28 01:17:28;;;;;;;5.43;4.93;;;3.90;99.90;;;;;;5020087;28;20217;-87
2022/12/28 01:20:07;;;;;;;5.87;4.90;;;3.90;99.90;;;;;;5010515;28;20257;-88
2022/12/28 01:22:42;;;;;;;5.67;5.17;;;4.10;99.90;;;;;;5014783;28;20184;-87
2022/12/28 01:25:21;;;;;;;8.37;5.93;;;4.10;99.90;;;;;;5013185;28;20732;-87
2022/12/28 01:31:04;;;;;;;5.63;5.03;;;4.20;99.90;;;;;;5016978;28;20291;-86
2022/12/28 01:33:33;;;;;;;9.07;5.40;;;4.20;99.90;;;;;;5013073;28;20201;-87
2022/12/28 01:36:17;;;;;;;8.40;5.17;;;4.10;99.90;;;;;;5013532;28;20252;-87
2022/12/28 01:38:48;;;;;;;6.50;5.53;;;4.10;99.90;;;;;;5019791;28;20193;-87
2022/12/28 01:41:24;;;;;;;5.87;5.33;;;4.10;99.90;;;;;;5019987;28;20190;-87
2022/12/28 01:44:06;;;;;;;6.23;5.27;;;4.10;99.90;;;;;;5025699;28;20182;-86
2022/12/28 01:46:59;;;;;;;5.07;4.57;;;4.10;99.90;;;;;;5022576;28;20236;-86
2022/12/28 01:49:37;;;;;;;5.57;4.57;;;4.10;99.90;;;;;;5010566;28;20222;-85
2022/12/28 01:52:08;;;;;;;5.40;4.90;;;4.20;99.90;;;;;;5033456;28;20195;-84
2022/12/28 01:54:55;;;;;;;5.17;4.60;;;4.20;99.90;;;;;;5026915;28;20202;-85
2022/12/28 01:57:34;;;;;;;5.50;5.00;;;4.30;99.90;;;;;;5036864;28;20193;-84
2022/12/28 02:00:15;;;;;;;5.17;4.67;;;4.30;99.90;;;;;;5030705;28;20190;-87
2022/12/28 02:02:53;;;;;;;6.53;5.50;;;4.20;99.90;;;;;;5018870;28;20185;-87
2022/12/28 02:05:37;;;;;;;5.27;4.77;;;4.20;99.90;;;;;;5024520;28;20281;-87
2022/12/28 02:08:05;;;;;;;7.03;5.50;;;4.20;99.90;;;;;;5025523;28;20197;-86
2022/12/28 02:10:39;;;;;;;7.00;5.67;;;4.10;99.90;;;;;;5025387;28;20253;-87
2022/12/28 02:13:11;;;;;;;6.07;4.83;;;4.10;99.90;;;;;;5015045;28;20210;-87
2022/12/28 02:15:56;;;;;;;6.37;5.43;;;4.00;99.90;;;;;;5034624;28;20293;-88
2022/12/28 02:18:26;;;;;;;5.73;5.10;;;4.10;99.90;;;;;;5031694;28;20196;-87
2022/12/28 02:21:24;;;;;;;5.00;4.47;;;4.20;99.90;;;;;;5014919;28;20174;-87
2022/12/28 02:23:56;;;;;;;7.30;5.03;;;4.30;99.90;;;;;;5029585;28;20194;-87
2022/12/28 02:26:37;;;;;;;5.60;5.00;;;4.30;99.90;;;;;;5025585;28;20209;-88
2022/12/28 02:29:39;;;;;;;5.30;4.60;;;4.30;99.90;;;;;;5007603;28;20201;-88
2022/12/28 02:32:43;;;;;;;5.20;4.63;;;4.30;99.90;;;;;;5020807;28;20192;-87
2022/12/28 02:35:34;;;;;;;4.97;4.53;;;4.30;99.90;;;;;;5016371;28;20222;-88
2022/12/28 02:38:02;;;;;;;7.07;6.13;;;4.20;99.90;;;;;;5019729;28;20241;-87
2022/12/28 02:40:41;;;;;;;6.13;5.33;;;4.20;99.90;;;;;;5022959;28;20185;-87
2022/12/28 02:43:07;;;;;;;5.60;5.10;;;4.30;99.90;;;;;;5023989;28;20250;-87
2022/12/28 02:52:12;;;;;;;5.70;4.40;;;4.50;99.90;;;;;;5018718;28;20660;-88
2022/12/28 02:57:45;;;;;;;4.67;4.27;;;4.60;99.90;;;;;;5009880;28;20212;-87
2022/12/28 03:00:19;;;;;;;4.63;3.87;;;4.50;99.90;;;;;;5017168;28;20196;-87
2022/12/28 03:03:11;;;;;;;4.67;4.17;;;4.60;99.90;;;;;;5031533;28;20249;-86
2022/12/28 03:09:36;;;;;;;3.47;3.17;;;4.60;99.90;;;;;;4993572;28;20190;-86
2022/12/28 03:12:25;;;;;;;3.23;2.80;;;4.70;99.90;;;;;;5019437;28;20178;-88
2022/12/28 03:15:02;;;;;;;3.80;3.20;;;4.60;99.90;;;;;;5020581;28;20208;-87
2022/12/28 03:31:44;;;;;;;2.43;1.70;;;4.90;99.90;;;;;;5014433;28;20720;-86
2022/12/28 03:34:10;;;;;;;1.77;1.67;;;5.00;99.90;;;;;;5032656;28;20280;-86
2022/12/28 03:37:14;;;;;;;1.87;1.70;;;5.10;99.90;;;;;;5010463;28;20659;-87
2022/12/28 03:39:52;;;;;;;1.50;1.40;;;5.30;99.90;;;;;;5011512;28;20199;-87
2022/12/28 03:45:21;;;;;;;1.70;1.60;;;5.30;99.90;;;;;;5012218;28;20228;-87
2022/12/28 03:48:03;;;;;;;2.10;1.50;;;5.30;99.90;;;;;;5020084;28;20250;-87
2022/12/28 03:50:42;;;;;;;2.73;1.60;;;5.40;99.90;;;;;;5038450;28;20182;-87
2022/12/28 03:53:17;;;;;;;2.50;1.90;;;5.30;99.90;;;;;;5019471;28;20181;-87
2022/12/28 03:55:43;;;;;;;1.70;1.50;;;5.40;99.90;;;;;;5024380;28;20236;-86
2022/12/28 03:58:12;;;;;;;1.70;1.60;;;5.40;99.90;;;;;;5021908;28;20179;-88
2022/12/28 04:00:45;;;;;;;1.87;1.50;;;5.50;99.90;;;;;;5023495;28;20201;-88
2022/12/28 04:03:11;;;;;;;2.80;1.70;;;5.40;99.90;;;;;;5021250;28;20173;-87
2022/12/28 04:05:42;;;;;;;2.30;1.60;;;5.40;99.90;;;;;;5010432;28;20225;-86
2022/12/28 04:08:17;;;;;;;1.63;1.50;;;5.50;99.90;;;;;;5021380;28;20240;-87
2022/12/28 04:10:43;;;;;;;1.53;1.43;;;5.40;99.90;;;;;;5026580;28;20292;-87
2022/12/28 04:13:10;;;;;;;2.60;1.70;;;5.60;99.90;;;;;;5020502;28;20221;-88
2022/12/28 04:15:39;;;;;;;1.97;1.67;;;5.60;99.90;;;;;;5011375;28;20225;-88
2022/12/28 04:18:08;;;;;;;3.53;1.57;;;5.50;99.90;;;;;;5024055;28;20181;-87
2022/12/28 04:20:34;;;;;;;1.87;1.47;;;5.40;99.90;;;;;;5024445;28;20224;-86
2022/12/28 04:23:18;;;;;;;1.90;1.50;;;5.40;99.90;;;;;;5023132;28;20182;-87
2022/12/28 04:25:54;;;;;;;4.50;1.67;;;5.50;99.90;;;;;;5020087;28;20213;-86
2022/12/28 04:28:20;;;;;;;2.27;1.70;;;5.70;99.90;;;;;;5029816;28;20185;-88
2022/12/28 04:30:50;;;;;;;1.70;1.60;;;5.70;99.50;;;;;;5021607;28;20199;-86
2022/12/28 04:33:23;;;;;;;1.50;1.40;;;5.70;99.40;;;;;;5011515;28;20194;-88
2022/12/28 04:35:52;;;;;;;1.47;1.37;;;5.80;98.30;;;;;;5037328;28;20228;-87
2022/12/28 04:38:19;;;;;;;2.57;1.50;;;5.80;98.70;;;;;;5019442;28;20192;-88
2022/12/28 04:40:45;;;;;;;1.60;1.50;;;5.70;99.00;;;;;;5024676;28;20182;-88
2022/12/28 04:43:14;;;;;;;2.17;1.70;;;5.60;99.50;;;;;;5020795;28;20273;-87
2022/12/28 04:45:49;;;;;;;2.37;1.70;;;5.60;99.30;;;;;;5014359;28;20720;-87
2022/12/28 04:48:20;;;;;;;4.97;1.73;;;5.70;98.90;;;;;;5016258;28;20728;-87
2022/12/28 04:50:52;;;;;;;2.00;1.67;;;5.80;98.20;;;;;;5021159;28;20189;-88
2022/12/28 04:53:26;;;;;;;2.87;1.67;;;5.80;98.60;;;;;;5007215;28;20204;-88
2022/12/28 04:55:54;;;;;;;1.37;1.30;;;5.80;98.50;;;;;;5018398;28;20355;-87
2022/12/28 04:58:19;;;;;;;2.57;1.57;;;5.90;97.70;;;;;;5021485;28;20206;-86
2022/12/28 05:00:45;;;;;;;2.77;1.53;;;6.00;97.30;;;;;;5020616;28;20258;-88
2022/12/28 05:03:14;;;;;;;1.67;1.40;;;6.10;97.00;;;;;;5006884;28;20198;-88
2022/12/28 05:05:51;;;;;;;1.50;1.40;;;6.20;96.50;;;;;;5027389;28;20573;-88
2022/12/28 05:08:24;;;;;;;1.30;1.30;;;6.20;95.90;;;;;;5012386;28;20186;-85
2022/12/28 05:11:02;;;;;;;1.57;1.47;;;6.40;94.80;;;;;;5017457;28;20190;-87
2022/12/28 05:13:59;;;;;;;2.10;1.50;;;6.30;95.50;;;;;;5027740;28;20209;-88
2022/12/28 05:16:27;;;;;;;1.60;1.30;;;6.20;95.60;;;;;;5018064;28;20253;-87
2022/12/28 05:19:06;;;;;;;2.97;1.47;;;6.20;96.50;;;;;;5018799;28;20538;-88
2022/12/28 05:21:59;;;;;;;1.60;1.50;;;6.30;95.40;;;;;;5015966;28;20692;-87
2022/12/28 05:24:25;;;;;;;2.73;1.60;;;6.40;95.00;;;;;;5021644;28;20178;-88
2022/12/28 05:27:10;;;;;;;2.10;1.43;;;6.40;94.90;;;;;;5019706;28;20209;-87
2022/12/28 05:29:36;;;;;;;2.03;1.40;;;6.20;96.40;;;;;;5039937;28;20197;-88
2022/12/28 05:32:03;;;;;;;1.90;1.50;;;6.30;95.10;;;;;;5018436;28;20197;-88
2022/12/28 05:34:30;;;;;;;2.67;1.30;;;6.40;93.90;;;;;;5032965;28;20208;-88
2022/12/28 05:37:00;;;;;;;1.47;1.37;;;6.50;93.60;;;;;;5026115;28;20217;-87
2022/12/28 05:39:37;;;;;;;2.23;1.60;;;6.50;93.70;;;;;;5034454;28;20178;-87
2022/12/28 05:42:24;;;;;;;2.70;1.30;;;6.50;93.30;;;;;;5017554;28;20194;-87
2022/12/28 05:44:56;;;;;;;2.60;1.57;;;6.50;93.40;;;;;;5025896;28;20212;-88
2022/12/28 05:47:34;;;;;;;1.50;1.40;;;6.70;91.90;;;;;;5035016;28;20209;-86
2022/12/28 05:50:03;;;;;;;1.80;1.37;;;6.70;92.80;;;;;;5025520;28;20202;-86
2022/12/28 05:52:33;;;;;;;2.50;1.70;;;6.80;91.90;;;;;;5015308;28;20186;-89
2022/12/28 05:55:03;;;;;;;2.70;1.70;;;6.80;91.00;;;;;;5022925;28;20248;-88
2022/12/28 05:57:48;;;;;;;1.93;1.40;;;6.90;90.80;;;;;;5022969;28;20205;-88
2022/12/28 06:00:23;;;;;;;10.47;9.50;;;7.00;89.80;;;;;;5007456;28;20194;-88
2022/12/28 06:03:30;;;;;;;1.90;1.63;;;7.00;89.80;;;;;;5020854;28;20206;-88
2022/12/28 06:06:15;;;;;;;1.60;1.50;;;6.90;90.70;;;;;;5034917;28;20283;-89
2022/12/28 06:09:01;;;;;;;3.00;1.50;;;6.80;91.00;;;;;;5024835;28;20228;-88
2022/12/28 06:11:31;;;;;;;1.60;1.30;;;6.90;90.40;;;;;;5008042;28;20209;-88
2022/12/28 06:14:23;;;;;;;1.97;1.70;;;6.80;91.50;;;;;;5020944;28;20185;-88
2022/12/28 06:16:50;;;;;;;1.37;1.27;;;6.80;92.00;;;;;;5014445;28;20233;-86
2022/12/28 06:19:19;;;;;;;2.50;1.50;;;6.70;91.90;;;;;;5018317;28;20189;-87
2022/12/28 06:21:49;;;;;;;1.50;1.40;;;6.80;91.30;;;;;;5018360;28;20186;-87
2022/12/28 06:24:17;;;;;;;1.77;1.50;;;6.80;92.30;;;;;;5022693;28;20240;-88
2022/12/28 06:26:44;;;;;;;4.40;1.50;;;6.70;92.00;;;;;;5012111;28;20568;-88
2022/12/28 06:29:11;;;;;;;2.30;1.43;;;6.70;92.30;;;;;;5015641;28;20189;-86
2022/12/28 06:31:58;;;;;;;1.40;1.30;;;6.70;91.70;;;;;;5017268;28;20212;-87
2022/12/28 06:34:51;;;;;;;3.00;1.43;;;6.70;92.10;;;;;;5018893;28;20193;-88
2022/12/28 06:37:21;;;;;;;1.60;1.50;;;6.80;90.90;;;;;;5028721;28;20225;-88
2022/12/28 06:39:54;;;;;;;1.73;1.50;;;6.90;91.40;;;;;;5020145;28;20205;-87
2022/12/28 06:42:24;;;;;;;2.00;1.80;;;6.70;92.80;;;;;;5021007;28;20196;-88
2022/12/28 06:44:58;;;;;;;1.77;1.60;;;6.60;92.80;;;;;;5013424;28;20186;-87
2022/12/28 06:47:56;;;;;;;1.83;1.60;;;6.70;93.50;;;;;;5017707;28;20214;-88
2022/12/28 06:50:32;;;;;;;1.70;1.60;;;6.60;93.60;;;;;;5025084;28;20500;-88
2022/12/28 06:53:04;;;;;;;1.57;1.47;;;6.70;92.40;;;;;;5028410;28;20189;-89
2022/12/28 06:55:41;;;;;;;3.00;1.83;;;6.70;93.30;;;;;;5025784;28;20210;-88
2022/12/28 06:58:10;;;;;;;2.30;1.70;;;6.70;93.40;;;;;;5012866;28;20212;-88
2022/12/28 07:00:46;;;;;;;3.43;1.90;;;6.70;92.90;;;;;;5012796;28;20209;-88
2022/12/28 07:03:32;;;;;;;2.00;1.70;;;6.70;93.30;;;;;;5020052;28;20257;-88
2022/12/28 07:06:29;;;;;;;1.57;1.47;;;6.70;92.50;;;;;;5018857;28;20236;-88
2022/12/28 07:09:08;;;;;;;3.97;1.83;;;6.90;92.30;;;;;;5031681;28;20202;-88
2022/12/28 07:11:40;;;;;;;1.60;1.50;;;6.80;92.10;;;;;;5017926;28;20198;-87
2022/12/28 07:14:07;;;;;;;3.43;1.73;;;6.80;92.30;;;;;;5033446;28;20213;-89
2022/12/28 07:16:46;;;;;;;1.70;1.60;;;7.00;91.30;;;;;;5021452;28;20224;-88
2022/12/28 07:19:17;;;;;;;2.17;1.60;;;7.20;90.80;;;;;;5023929;28;20198;-87
2022/12/28 07:21:43;;;;;;;1.43;1.33;;;7.00;91.90;;;;;;5030042;28;20177;-88
2022/12/28 07:24:23;;;;;;;1.57;1.47;;;7.00;91.70;;;;;;5037573;28;20219;-87
2022/12/28 07:27:08;;;;;;;3.43;1.60;;;7.00;91.80;;;;;;5015718;28;20221;-88
2022/12/28 07:30:00;;;;;;;2.53;1.77;;;7.20;91.00;;;;;;5013427;28;20205;-88
2022/12/28 07:32:36;;;;;;;2.63;1.83;;;7.20;90.00;;;;;;5020269;28;20190;-88
2022/12/28 07:35:08;;;;;;;3.43;1.70;;;7.10;90.90;;;;;;5016237;28;20216;-86
2022/12/28 07:37:49;;;;;;;2.53;1.70;;;7.10;90.90;;;;;;5016218;28;20208;-87
2022/12/28 07:40:23;;;;;;;1.70;1.60;;;7.10;91.60;;;;;;5035957;28;20186;-86
2022/12/28 07:42:55;;;;;;;1.60;1.50;;;7.20;90.90;;;;;;5020650;28;20504;-88
2022/12/28 07:48:21;;;;;;;2.43;1.63;;;7.20;91.20;;;;;;5012130;28;20222;-87
2022/12/28 07:50:49;;;;;;;3.00;1.70;;;7.20;91.40;;;;;;5014573;28;20181;-88
2022/12/28 07:56:45;;;;;;;2.40;1.80;;;7.20;90.90;;;;;;5020478;28;20221;-87
2022/12/28 07:59:19;;;;;;;1.50;1.40;;;7.20;90.80;;;;;;5027529;28;20186;-86
2022/12/28 08:01:52;;;;;;;2.10;1.50;;;7.20;91.00;;;;;;5010255;28;20196;-88
2022/12/28 08:04:52;;;;;;;2.93;1.70;;;7.30;90.00;;;;;;5019500;28;20182;-89
2022/12/28 08:07:19;;;;;;;3.13;1.80;;;7.40;90.20;;;;;;5019516;28;20221;-87
2022/12/28 08:10:10;;;;;;;2.40;1.77;;;7.30;91.20;;;;;;5014846;28;20178;-89
2022/12/28 08:12:40;;;;;;;5.67;1.60;;;7.40;89.60;;;;;;5023094;28;20197;-87
2022/12/28 08:15:18;;;;;;;1.70;1.60;;;7.40;90.30;;;;;;5021510;28;20213;-88
2022/12/28 08:17:46;;;;;;;2.47;1.57;;;7.50;89.70;;;;;;5022349;28;20185;-87
2022/12/28 08:20:54;;;;;;;3.03;1.67;;;7.50;90.20;;;;;;5020821;28;20611;-88
2022/12/28 08:23:23;;;;;;;2.13;1.80;;;7.40;90.40;;;;;;5020480;28;20208;-88
2022/12/28 08:25:51;;;;;;;1.73;1.50;;;7.60;89.00;;;;;;5018981;28;20220;-87
2022/12/28 08:28:17;;;;;;;3.17;1.70;;;7.50;89.50;;;;;;5034030;28;20189;-87
2022/12/28 08:30:43;;;;;;;2.17;1.70;;;7.50;89.70;;;;;;5020823;28;20436;-89
2022/12/28 08:33:12;;;;;;;1.33;1.30;;;7.60;89.00;;;;;;5021207;28;20186;-89
2022/12/28 08:35:41;;;;;;;2.37;1.80;;;7.60;89.00;;;;;;5018168;28;20309;-88
2022/12/28 08:38:08;;;;;;;2.03;1.73;;;7.60;89.50;;;;;;5024585;28;20200;-86
2022/12/28 08:40:34;;;;;;;2.50;1.70;;;7.60;88.70;;;;;;5023327;28;20193;-89
2022/12/28 08:43:01;;;;;;;1.57;1.43;;;7.60;89.70;;;;;;5023961;28;20212;-89
2022/12/28 08:45:33;;;;;;;1.87;1.70;;;7.70;89.30;;;;;;5020614;28;20194;-88
2022/12/28 08:47:59;;;;;;;2.63;1.80;;;7.80;87.90;;;;;;5020033;28;20209;-88
2022/12/28 08:50:28;;;;;;;1.73;1.63;;;7.80;87.10;;;;;;5027633;28;20181;-86
2022/12/28 08:52:54;;;;;;;1.97;1.70;;;7.80;88.10;;;;;;5027983;28;20269;-88
2022/12/28 08:55:22;;;;;;;2.30;1.70;;;7.80;88.10;;;;;;5037507;28;20228;-87
2022/12/28 08:57:48;;;;;;;2.43;1.63;;;7.80;88.50;;;;;;5032814;28;20198;-88
2022/12/28 09:00:20;;;;;;;2.80;2.00;;;7.90;87.30;;;;;;5039371;28;20202;-89
2022/12/28 09:02:55;;;;;;;4.57;1.60;;;7.80;88.60;;;;;;5015435;28;20197;-89
2022/12/28 09:05:24;;;;;;;1.63;1.53;;;7.90;88.70;;;;;;5016124;28;20195;-88
2022/12/28 09:07:58;;;;;;;2.10;1.77;;;7.90;88.10;;;;;;5018165;28;20201;-89
2022/12/28 09:10:30;;;;;;;3.73;1.90;;;8.00;85.80;;;;;;5022447;28;20182;-88
2022/12/28 09:12:57;;;;;;;2.00;1.80;;;8.10;86.20;;;;;;5022680;28;20174;-89
2022/12/28 09:15:28;;;;;;;2.33;1.70;;;8.20;84.90;;;;;;5015753;28;20232;-88
2022/12/28 09:17:59;;;;;;;2.30;1.73;;;8.20;85.70;;;;;;5020131;28;20196;-88
2022/12/28 09:20:29;;;;;;;1.83;1.73;;;8.30;85.00;;;;;;5018966;28;20190;-89
2022/12/28 09:22:55;;;;;;;1.90;1.70;;;8.40;85.30;;;;;;5025084;28;20181;-88
2022/12/28 09:25:24;;;;;;;1.93;1.80;;;8.40;84.00;;;;;;5012911;28;20189;-88
2022/12/28 09:28:03;;;;;;;2.03;1.70;;;8.50;83.80;;;;;;5020492;28;20217;-89
2022/12/28 09:30:29;;;;;;;2.03;1.77;;;8.50;83.30;;;;;;5017294;28;20186;-89
2022/12/28 09:35:47;;;;;;;1.83;1.73;;;8.60;82.60;;;;;;5021909;28;20248;-89
2022/12/28 09:38:17;;;;;;;1.93;1.80;;;8.50;82.50;;;;;;5023688;28;20181;-89
2022/12/28 09:40:48;;;;;;;2.33;1.70;;;8.50;84.50;;;;;;5021354;28;20234;-90
2022/12/28 09:43:17;;;;;;;1.80;1.70;;;8.60;82.10;;;;;;5028657;28;20197;-88
2022/12/28 09:45:47;;;;;;;1.80;1.70;;;8.60;82.90;;;;;;5027173;28;20216;-88
2022/12/28 09:48:22;;;;;;;2.30;1.70;;;8.70;81.70;;;;;;5023419;28;20243;-89
2022/12/28 09:50:58;;;;;;;2.97;1.90;;;8.60;82.80;;;;;;5020718;28;20193;-88
2022/12/28 09:53:31;;;;;;;2.27;2.07;;;8.80;82.00;;;;;;5014021;28;20193;-88
2022/12/28 09:56:28;;;;;;;3.40;1.90;;;8.80;81.40;;;;;;5018385;28;20218;-89
2022/12/28 09:59:03;;;;;;;1.80;1.70;;;8.80;83.50;;;;;;5023752;28;20209;-89
2022/12/28 10:01:29;;;;;;;1.80;1.70;;;8.90;82.00;;;;;;5015275;28;20737;-89
2022/12/28 10:04:02;;;;;;;2.10;1.90;;;8.90;83.00;;;;;;5016142;28;20185;-88
2022/12/28 10:06:35;;;;;;;1.77;1.60;;;8.90;82.60;;;;;;5020731;28;20227;-89
2022/12/28 10:09:19;;;;;;;2.20;2.00;;;9.00;80.30;;;;;;5025533;28;20252;-88
2022/12/28 10:11:45;;;;;;;2.10;1.90;;;9.30;79.20;;;;;;5040205;28;20190;-89
2022/12/28 10:14:33;;;;;;;1.73;1.63;;;9.10;80.20;;;;;;5027572;28;20194;-89
2022/12/28 10:17:00;;;;;;;2.03;1.87;;;9.20;80.80;;;;;;5035440;28;20263;-90
2022/12/28 10:19:33;;;;;;;1.53;1.43;;;9.20;82.10;;;;;;5023328;28;20255;-89
2022/12/28 10:22:02;;;;;;;1.93;1.80;;;9.30;79.70;;;;;;5016204;28;20429;-87
2022/12/28 10:24:29;;;;;;;2.03;1.70;;;9.30;78.40;;;;;;5018954;28;20205;-88
2022/12/28 10:26:57;;;;;;;2.03;1.50;;;9.40;78.60;;;;;;5029449;28;20205;-87
2022/12/28 10:29:25;;;;;;;1.70;1.60;;;9.40;80.00;;;;;;5024990;28;20185;-88
2022/12/28 10:31:59;;;;;;;2.90;1.90;;;9.50;78.10;;;;;;5015125;28;20637;-86
2022/12/28 10:34:25;;;;;;;2.03;1.50;;;9.40;78.80;;;;;;5018396;28;20184;-87
2022/12/28 10:36:53;;;;;;;2.53;1.70;;;9.50;77.80;;;;;;5024551;28;20217;-86
2022/12/28 10:39:27;;;;;;;1.77;1.67;;;9.60;76.80;;;;;;5025912;28;20209;-87
2022/12/28 10:41:55;;;;;;;2.70;1.50;;;9.50;76.90;;;;;;5014458;28;20204;-88
2022/12/28 10:44:33;;;;;;;1.80;1.70;;;9.50;78.40;;;;;;5022412;28;20185;-88
2022/12/28 10:47:02;;;;;;;2.83;1.60;;;9.40;77.00;;;;;;5025736;28;20185;-87
2022/12/28 10:49:35;;;;;;;2.03;1.70;;;9.40;78.10;;;;;;5020056;28;20190;-89
2022/12/28 10:52:04;;;;;;;2.43;1.60;;;9.50;77.50;;;;;;5018104;28;20420;-89
2022/12/28 10:54:55;;;;;;;2.43;1.70;;;9.40;78.30;;;;;;5017570;28;20231;-90
2022/12/28 10:57:30;;;;;;;1.80;1.70;;;9.50;77.60;;;;;;5031467;28;20193;-89
2022/12/28 11:00:46;;;;;;;1.90;1.80;;;9.40;79.20;;;;;;5020951;28;20197;-91
2022/12/28 11:03:24;;;;;;;2.93;1.90;;;9.70;77.00;;;;;;5041377;28;20208;-91
2022/12/28 11:09:55;;;;;;;3.10;1.83;;;9.70;77.20;;;;;;5015288;28;20209;-89
2022/12/28 11:12:32;;;;;;;1.83;1.73;;;9.60;77.10;;;;;;5022719;28;20682;-90
2022/12/28 11:15:31;;;;;;;2.27;1.60;;;9.60;76.50;;;;;;5026262;28;20253;-91
2022/12/28 11:18:39;;;;;;;3.17;1.90;;;9.60;76.30;;;;;;5014521;28;20661;-90
2022/12/28 11:21:40;;;;;;;;;;;;;;;;;;;;;
2022/12/28 11:24:32;;;;;;;2.10;1.90;;;9.70;77.10;;;;;;5024778;28;20236;-91
2022/12/28 11:31:45;;;;;;;1.67;1.57;;;10.20;75.60;;;;;;4924668;29;20401;-93
2022/12/28 11:35:04;;;;;;;1.90;1.80;;;10.20;74.80;;;;;;4986347;28;20691;-93
2022/12/28 11:37:59;;;;;;;2.67;1.90;;;10.40;73.20;;;;;;5005288;28;20252;-92
2022/12/28 11:41:23;;;;;;;3.40;2.00;;;10.60;72.60;;;;;;5022988;28;20197;-93
2022/12/28 11:44:03;;;;;;;1.70;1.60;;;10.90;71.20;;;;;;4983723;28;20259;-92
2022/12/28 11:47:06;;;;;;;1.73;1.60;;;10.70;71.50;;;;;;4985511;28;20210;-92
2022/12/28 11:49:37;;;;;;;2.60;1.60;;;10.50;72.80;;;;;;5016493;28;20249;-90
2022/12/28 11:52:15;;;;;;;1.90;1.80;;;10.40;74.50;;;;;;5019874;28;20181;-91
2022/12/28 11:54:58;;;;;;;2.50;1.93;;;10.60;71.90;;;;;;5020913;28;20184;-90
2022/12/28 11:57:42;;;;;;;3.80;1.97;;;10.70;72.30;;;;;;5015696;28;20208;-89
2022/12/28 12:00:22;;;;;;;2.77;2.00;;;10.60;72.50;;;;;;5020453;28;20182;-90
2022/12/28 12:02:59;;;;;;;1.90;1.73;;;10.50;73.20;;;;;;5019508;28;20221;-89
2022/12/28 12:05:40;;;;;;;3.00;1.80;;;10.40;72.70;;;;;;5021942;28;20650;-90
2022/12/28 12:08:40;;;;;;;1.90;1.67;;;10.40;72.60;;;;;;5025856;28;20245;-89
2022/12/28 12:11:18;;;;;;;2.27;1.87;;;10.50;71.80;;;;;;5022007;28;20208;-87
2022/12/28 12:13:48;;;;;;;4.10;1.90;;;10.40;73.60;;;;;;5034153;28;20197;-86
2022/12/28 12:16:50;;;;;;;1.93;1.80;;;10.30;74.50;;;;;;5046647;28;20239;-87
2022/12/28 12:22:13;;;;;;;3.60;3.03;;;10.50;74.20;;;;;;5062119;28;20222;-87
2022/12/28 12:25:06;;;;;;;5.00;4.03;;;10.50;74.30;;;;;;5056619;28;20180;-86
2022/12/28 12:27:46;;;;;;;2.47;2.10;;;10.60;71.70;;;;;;5048611;28;20200;-86
2022/12/28 12:30:17;;;;;;;6.70;6.00;;;10.60;72.40;;;;;;5067659;28;20231;-87
2022/12/28 12:32:52;;;;;;;2.40;2.20;;;10.80;72.40;;;;;;5047400;28;20206;-87
2022/12/28 12:35:26;;;;;;;5.60;3.07;;;11.00;70.30;;;;;;5043319;28;20200;-84
2022/12/28 12:38:10;;;;;;;1.87;1.77;;;10.90;71.20;;;;;;5037953;28;20177;-79
2022/12/28 12:40:45;;;;;;;5.87;5.27;;;10.80;71.90;;;;;;5041941;28;20272;-83
2022/12/28 12:43:32;;;;;;;3.53;2.20;;;10.80;72.80;;;;;;5044144;28;20185;-84
2022/12/28 12:46:01;;;;;;;3.37;2.23;;;10.80;71.00;;;;;;5055502;28;20193;-86
2022/12/28 12:49:08;;;;;;;4.40;4.07;;;10.80;70.90;;;;;;5048383;28;20901;-84
2022/12/28 12:51:42;;;;;;;1.83;1.70;;;10.70;73.40;;;;;;4968247;28;20195;-85
2022/12/28 12:54:29;;;;;;;2.77;1.97;;;10.70;72.00;;;;;;5022009;28;20209;-88
2022/12/28 12:57:28;;;;;;;2.27;2.07;;;10.70;74.00;;;;;;5040185;28;20215;-87
2022/12/28 13:00:23;;;;;;;2.03;1.83;;;10.60;72.40;;;;;;5043725;28;20220;-86
2022/12/28 13:03:07;;;;;;;3.10;1.97;;;10.60;72.90;;;;;;5043842;28;20200;-88
2022/12/28 13:05:38;;;;;;;2.13;1.90;;;10.60;73.70;;;;;;5036936;28;20300;-86
2022/12/28 13:08:04;;;;;;;2.30;1.70;;;10.60;73.20;;;;;;5029149;28;20194;-86
2022/12/28 13:10:35;;;;;;;1.87;1.73;;;10.60;73.30;;;;;;5036468;28;20214;-86
2022/12/28 13:13:03;;;;;;;2.00;1.80;;;10.70;73.30;;;;;;5036070;28;20205;-86
2022/12/28 13:15:29;;;;;;;1.70;1.60;;;10.70;71.90;;;;;;5040672;28;20217;-86
2022/12/28 13:18:14;;;;;;;2.37;1.67;;;10.80;71.80;;;;;;5027746;28;20186;-86
2022/12/28 13:20:40;;;;;;;3.27;1.70;;;10.80;69.10;;;;;;5043568;28;20841;-87
2022/12/28 13:23:15;;;;;;;2.77;2.57;;;10.80;70.60;;;;;;5036010;28;20190;-85
2022/12/28 13:25:45;;;;;;;2.57;1.77;;;10.70;71.00;;;;;;5026673;28;20227;-85
2022/12/28 13:28:36;;;;;;;2.37;1.80;;;10.70;72.90;;;;;;5036785;28;20185;-87
2022/12/28 13:31:17;;;;;;;1.70;1.60;;;10.70;71.20;;;;;;5047205;28;20269;-87
2022/12/28 13:33:56;;;;;;;1.70;1.60;;;10.60;70.30;;;;;;5038449;28;20267;-85
2022/12/28 13:36:22;;;;;;;2.57;1.57;;;10.70;70.40;;;;;;5041095;28;20212;-86
2022/12/28 13:39:02;;;;;;;1.83;1.73;;;10.70;69.90;;;;;;5036428;28;20188;-87
2022/12/28 13:41:29;;;;;;;1.80;1.70;;;10.70;71.50;;;;;;5040942;28;20201;-86
2022/12/28 13:44:20;;;;;;;1.87;1.73;;;10.70;70.90;;;;;;5035318;28;20769;-87
2022/12/28 13:46:53;;;;;;;3.53;2.00;;;10.70;70.00;;;;;;5051156;28;20209;-86
2022/12/28 13:49:21;;;;;;;1.80;1.60;;;10.70;70.40;;;;;;5035702;28;21046;-88
2022/12/28 13:51:48;;;;;;;2.07;1.50;;;10.70;70.90;;;;;;5043027;28;20207;-86
2022/12/28 13:54:14;;;;;;;1.90;1.80;;;10.70;71.00;;;;;;5042175;28;20194;-86
2022/12/28 13:56:42;;;;;;;2.57;1.70;;;10.70;71.10;;;;;;5033722;28;20212;-86
2022/12/28 13:59:15;;;;;;;1.63;1.53;;;10.70;71.00;;;;;;5032727;28;20259;-86
2022/12/28 14:01:43;;;;;;;1.70;1.60;;;10.80;71.60;;;;;;5040609;28;20204;-85
2022/12/28 14:04:14;;;;;;;2.93;1.80;;;11.00;69.80;;;;;;5036149;28;20185;-85
2022/12/28 14:06:42;;;;;;;2.27;1.83;;;11.00;70.20;;;;;;5035887;28;20189;-84
2022/12/28 14:09:12;;;;;;;1.70;1.60;;;10.90;70.20;;;;;;5034797;28;20197;-85
2022/12/28 14:11:41;;;;;;;2.27;2.00;;;11.20;69.20;;;;;;5039376;28;20200;-85
2022/12/28 14:14:08;;;;;;;2.37;1.80;;;11.00;70.40;;;;;;5036730;28;20191;-85
2022/12/28 14:16:34;;;;;;;2.13;2.03;;;11.00;71.20;;;;;;5041991;28;20268;-86
2022/12/28 14:19:02;;;;;;;2.03;1.93;;;11.00;70.80;;;;;;5045042;28;20196;-86
2022/12/28 14:21:39;;;;;;;1.83;1.70;;;11.20;70.30;;;;;;5039715;28;20215;-86
2022/12/28 14:24:10;;;;;;;2.03;1.83;;;11.20;70.10;;;;;;5036085;28;20177;-86
2022/12/28 14:26:38;;;;;;;2.00;1.90;;;11.20;68.70;;;;;;5039676;28;20320;-86
2022/12/28 14:29:12;;;;;;;2.63;2.07;;;11.30;69.30;;;;;;5036992;28;20177;-86
2022/12/28 14:31:38;;;;;;;1.93;1.73;;;11.20;69.20;;;;;;5040320;28;20186;-86
2022/12/28 14:34:05;;;;;;;2.43;1.83;;;11.30;68.10;;;;;;5034441;28;20188;-88
2022/12/28 14:36:48;;;;;;;1.80;1.70;;;11.20;68.90;;;;;;5038702;28;20212;-86
2022/12/28 14:39:29;;;;;;;3.23;1.70;;;11.20;68.50;;;;;;5040390;28;20243;-86